Time;durP1;ratioP1;P1;durP2;ratioP2;P2;SDS_P1;SDS_P2;PMS_P1;PMS_P2;Temp;Humidity;BMP_temperature;BMP_pressure;BME280_temperature;BME280_humidity;BME280_pressure;Samples;Min_cycle;Max_cycle;Signal;HPM_P1;HPM_P2
2022/06/06 00:02:02;;;;;;;3.40;3.05;;;;;;;20.84;81.13;94329.13;5092481;28;20180;-64
2022/06/06 00:04:28;;;;;;;4.65;2.78;;;;;;;20.75;81.67;94322.56;5073943;28;20196;-62
2022/06/06 00:06:58;;;;;;;6.15;3.20;;;;;;;20.67;82.03;94308.06;5073934;28;20646;-61
2022/06/06 00:09:27;;;;;;;3.65;2.90;;;;;;;20.56;82.82;94313.03;5073769;28;20216;-65
2022/06/06 00:11:56;;;;;;;2.97;2.67;;;;;;;20.57;83.45;94328.31;5092269;28;20188;-61
2022/06/06 00:14:22;;;;;;;4.60;3.05;;;;;;;20.69;82.63;94342.25;5091640;28;20200;-65
2022/06/06 00:16:47;;;;;;;3.50;2.72;;;;;;;20.85;81.49;94347.00;5073862;28;20183;-61
2022/06/06 00:19:12;;;;;;;4.97;2.72;;;;;;;20.96;80.65;94352.56;5099464;22;20261;-61
2022/06/06 00:21:40;;;;;;;6.05;2.70;;;;;;;20.90;81.14;94341.25;5092075;28;20184;-61
2022/06/06 00:24:06;;;;;;;4.32;3.33;;;;;;;20.97;81.71;94326.50;5091631;28;20195;-61
2022/06/06 00:26:33;;;;;;;4.85;3.00;;;;;;;21.05;81.59;94335.91;5073417;28;20191;-62
2022/06/06 00:28:59;;;;;;;4.72;3.00;;;;;;;21.09;78.74;94375.88;5091642;28;20197;-61
2022/06/06 00:36:58;;;;;;;3.10;2.80;;;;;;;20.87;80.33;94320.94;5091758;28;20207;-60
2022/06/06 00:39:23;;;;;;;2.88;2.40;;;;;;;21.01;80.08;94325.09;5091549;28;20279;-60
2022/06/06 00:41:51;;;;;;;5.65;3.00;;;;;;;21.04;78.33;94342.84;5073490;28;20185;-62
2022/06/06 00:44:31;;;;;;;3.92;2.53;;;;;;;21.11;79.40;94311.81;5073255;28;20681;-62
2022/06/06 00:47:05;;;;;;;3.85;2.55;;;;;;;21.24;78.12;94335.84;5073486;28;20207;-61
2022/06/06 00:49:37;;;;;;;5.20;2.53;;;;;;;21.09;78.09;94330.09;5073446;28;20687;-62
2022/06/06 00:52:09;;;;;;;6.47;3.00;;;;;;;20.97;79.33;94308.41;5091781;28;20242;-61
2022/06/06 00:54:35;;;;;;;5.43;2.70;;;;;;;20.92;78.80;94305.66;5092173;28;20274;-63
2022/06/06 00:57:09;;;;;;;3.10;2.80;;;;;;;20.95;79.44;94287.13;5095669;28;20219;-60
2022/06/06 00:59:37;;;;;;;3.85;2.60;;;;;;;21.18;79.79;94286.72;5077030;28;20212;-62
2022/06/06 01:02:04;;;;;;;3.92;2.88;;;;;;;21.22;79.50;94283.53;5077096;28;20196;-63
2022/06/06 01:04:31;;;;;;;3.03;2.72;;;;;;;21.41;78.74;94298.19;5077028;28;20223;-64
2022/06/06 01:06:57;;;;;;;2.60;2.40;;;;;;;21.59;78.41;94295.72;5077202;28;20260;-64
2022/06/06 01:09:24;;;;;;;6.45;3.20;;;;;;;21.62;77.64;94295.34;5076737;28;20246;-60
2022/06/06 01:11:55;;;;;;;5.82;3.33;;;;;;;21.60;78.04;94291.34;5095002;28;20226;-61
2022/06/06 01:14:25;;;;;;;6.63;3.15;;;;;;;21.54;78.06;94280.03;5095072;28;20672;-61
2022/06/06 01:17:20;;;;;;;6.00;3.28;;;;;;;21.48;77.50;94274.88;5076849;28;20187;-60
2022/06/06 01:19:55;;;;;;;4.40;3.15;;;;;;;21.45;77.49;94276.09;5068622;28;20199;-63
2022/06/06 01:22:42;;;;;;;4.57;3.30;;;;;;;21.53;77.63;94278.44;5095116;28;20640;-64
2022/06/06 01:25:31;;;;;;;5.20;2.50;;;;;;;21.35;76.01;94288.66;5094916;28;20168;-60
2022/06/06 01:27:57;;;;;;;6.10;2.80;;;;;;;21.12;76.09;94266.84;5095548;28;20200;-61
2022/06/06 01:30:28;;;;;;;4.68;2.67;;;;;;;20.99;76.33;94267.66;5094863;28;20672;-62
2022/06/06 01:32:57;;;;;;;4.50;3.03;;;;;;;20.89;76.55;94269.84;5076552;28;20700;-61
2022/06/06 01:35:35;;;;;;;4.03;2.78;;;;;;;20.87;77.58;94262.31;5094593;28;20654;-63
2022/06/06 01:38:02;;;;;;;6.10;2.42;;;;;;;20.96;78.02;94254.34;5076717;28;20211;-62
2022/06/06 01:40:43;;;;;;;3.45;2.60;;;;;;;20.81;78.98;94239.88;5094749;28;20183;-61
2022/06/06 01:43:13;;;;;;;4.63;3.22;;;;;;;20.82;79.12;94264.72;5094473;28;20577;-62
2022/06/06 01:45:51;;;;;;;6.63;5.13;;;;;;;20.30;84.46;94329.28;5076570;28;20256;-63
2022/06/06 01:48:24;;;;;;;11.48;4.70;;;;;;;20.12;91.30;94348.91;5076596;28;20204;-60
2022/06/06 01:50:50;;;;;;;12.20;5.10;;;;;;;20.07;97.78;94372.72;5076184;28;20658;-63
2022/06/06 01:53:19;;;;;;;12.52;5.68;;;;;;;19.84;100.00;94398.81;5076415;28;20283;-62
2022/06/06 01:55:47;;;;;;;13.50;7.65;;;;;;;19.44;100.00;94398.81;5094321;28;20184;-62
2022/06/06 01:58:21;;;;;;;18.05;7.70;;;;;;;19.23;100.00;94364.34;5095510;28;20219;-62
2022/06/06 02:00:46;;;;;;;13.52;6.38;;;;;;;19.08;100.00;94357.72;5076359;28;20172;-62
2022/06/06 02:03:12;;;;;;;14.88;6.18;;;;;;;18.96;100.00;94336.84;5077120;28;20196;-63
2022/06/06 02:05:38;;;;;;;16.70;6.55;;;;;;;18.93;100.00;94349.28;5094041;28;20623;-60
2022/06/06 02:08:05;;;;;;;9.75;5.68;;;;;;;18.98;100.00;94367.56;5094592;28;20290;-63
2022/06/06 02:10:30;;;;;;;12.25;6.55;;;;;;;19.05;100.00;94376.94;5075933;28;20738;-62
2022/06/06 02:12:56;;;;;;;13.43;6.68;;;;;;;19.05;100.00;94381.28;5094532;28;20204;-61
2022/06/06 02:15:23;;;;;;;12.88;6.15;;;;;;;19.16;100.00;94385.94;5094161;28;20205;-61
2022/06/06 02:17:50;;;;;;;11.90;6.40;;;;;;;19.48;100.00;94381.97;5083649;22;20216;-62
2022/06/06 02:20:18;;;;;;;10.98;7.10;;;;;;;19.40;100.00;94406.13;5093890;28;20188;-63
2022/06/06 02:22:43;;;;;;;14.55;7.75;;;;;;;19.42;100.00;94414.47;5075633;28;20281;-63
2022/06/06 02:25:11;;;;;;;13.30;6.07;;;;;;;19.45;100.00;94423.63;5075577;28;20174;-64
2022/06/06 02:27:37;;;;;;;16.85;9.57;;;;;;;19.14;100.00;94442.03;5094215;28;20180;-60
2022/06/06 02:30:06;;;;;;;9.85;6.75;;;;;;;19.38;100.00;94453.72;5075404;28;20212;-63
2022/06/06 02:32:32;;;;;;;10.57;6.13;;;;;;;19.41;100.00;94473.97;5075507;28;20614;-61
2022/06/06 02:34:57;;;;;;;22.48;8.10;;;;;;;19.50;100.00;94483.16;5093458;28;20204;-60
2022/06/06 02:37:23;;;;;;;17.08;7.55;;;;;;;19.63;100.00;94489.22;5075243;28;20184;-61
2022/06/06 02:39:48;;;;;;;18.52;7.55;;;;;;;19.68;100.00;94481.69;5093779;28;20220;-63
2022/06/06 02:42:14;;;;;;;16.95;7.22;;;;;;;19.67;100.00;94453.50;5093750;28;20657;-64
2022/06/06 02:44:39;;;;;;;13.65;7.07;;;;;;;19.62;100.00;94446.34;5075080;28;20192;-63
2022/06/06 02:47:05;;;;;;;14.18;7.93;;;;;;;19.54;100.00;94427.63;5093425;28;20512;-63
2022/06/06 02:49:33;;;;;;;14.95;6.80;;;;;;;19.53;100.00;94406.22;5075121;28;20301;-64
2022/06/06 02:52:03;;;;;;;12.75;7.13;;;;;;;19.46;100.00;94402.00;5093407;28;20664;-61
2022/06/06 02:54:30;;;;;;;15.07;7.32;;;;;;;19.45;100.00;94380.59;5093617;28;20280;-63
2022/06/06 02:56:56;;;;;;;13.93;6.85;;;;;;;19.36;100.00;94348.22;5074989;28;20192;-61
2022/06/06 02:59:23;;;;;;;11.57;6.47;;;;;;;19.28;100.00;94336.25;5092901;28;20196;-63
2022/06/06 03:01:49;;;;;;;13.82;7.20;;;;;;;19.21;100.00;94339.75;5093013;28;20208;-64
2022/06/06 03:04:15;;;;;;;13.48;7.47;;;;;;;19.08;100.00;94334.53;5092895;28;20224;-62
2022/06/06 03:06:54;;;;;;;13.25;7.55;;;;;;;18.93;100.00;94342.34;5093237;28;20325;-62
2022/06/06 03:09:47;;;;;;;12.75;6.90;;;;;;;19.02;100.00;94354.13;5092872;28;20617;-61
2022/06/06 03:12:35;;;;;;;15.55;7.93;;;;;;;19.02;100.00;94376.50;5074672;28;20208;-64
2022/06/06 03:15:12;;;;;;;13.60;7.25;;;;;;;19.14;100.00;94382.75;5092956;28;20180;-64
2022/06/06 03:20:46;;;;;;;17.48;7.43;;;;;;;19.47;100.00;94407.00;5092765;28;20199;-63
2022/06/06 03:23:44;;;;;;;11.27;7.43;;;;;;;19.51;100.00;94409.97;5074653;28;20295;-63
2022/06/06 03:27:03;;;;;;;13.88;8.35;;;;;;;19.62;100.00;94419.75;5074574;28;20293;-63
2022/06/06 03:30:16;;;;;;;14.10;7.75;;;;;;;19.58;100.00;94424.50;5013691;28;20206;-63
2022/06/06 03:32:48;;;;;;;13.55;9.27;;;;;;;19.44;100.00;94422.81;4990882;28;20309;-63
2022/06/06 03:35:32;;;;;;;9.35;7.50;;;;;;;19.33;100.00;94446.56;5060773;28;20191;-62
2022/06/06 03:37:58;;;;;;;12.70;8.50;;;;;;;19.49;100.00;94443.69;5093012;28;20577;-62
2022/06/06 03:40:54;;;;;;;15.70;7.25;;;;;;;19.51;100.00;94436.56;5074241;28;20670;-64
2022/06/06 03:43:31;;;;;;;9.95;7.45;;;;;;;19.35;100.00;94429.13;5092160;28;20245;-63
2022/06/06 03:46:11;;;;;;;12.90;6.75;;;;;;;19.36;100.00;94425.56;5074249;28;20584;-62
2022/06/06 03:49:26;;;;;;;18.42;7.10;;;;;;;19.18;100.00;94417.47;5074070;28;20238;-61
2022/06/06 03:52:09;;;;;;;9.20;6.70;;;;;;;19.08;100.00;94415.22;5068720;28;20218;-61
2022/06/06 03:54:47;;;;;;;11.77;8.20;;;;;;;19.04;100.00;94419.16;5092296;28;20837;-60
2022/06/06 03:57:24;;;;;;;13.52;8.40;;;;;;;19.01;100.00;94427.25;5092569;28;20180;-61
2022/06/06 03:59:56;;;;;;;10.65;8.63;;;;;;;18.92;100.00;94422.41;5073977;28;20661;-62
2022/06/06 04:02:28;;;;;;;12.50;8.95;;;;;;;19.05;100.00;94419.94;5092418;28;20184;-62
2022/06/06 04:04:59;;;;;;;13.30;8.68;;;;;;;19.24;100.00;94416.72;5092192;28;20161;-63
2022/06/06 04:07:24;;;;;;;13.73;9.38;;;;;;;19.19;100.00;94414.69;5074043;28;20650;-62
2022/06/06 04:09:52;;;;;;;9.70;8.10;;;;;;;19.16;100.00;94414.28;5073919;28;20203;-59
2022/06/06 04:12:39;;;;;;;10.50;8.48;;;;;;;19.15;100.00;94408.31;5092363;28;20188;-61
2022/06/06 04:15:23;;;;;;;14.75;9.23;;;;;;;19.23;100.00;94402.22;5092138;28;20649;-64
2022/06/06 04:18:01;;;;;;;13.27;7.80;;;;;;;19.37;100.00;94403.97;5092332;28;20208;-62
2022/06/06 04:20:35;;;;;;;14.00;8.82;;;;;;;19.23;100.00;94402.22;5073864;28;20552;-64
2022/06/06 04:23:15;;;;;;;13.82;8.57;;;;;;;19.21;100.00;94404.19;5092303;28;20208;-64
2022/06/06 04:26:23;;;;;;;10.88;8.40;;;;;;;19.33;100.00;94404.47;5091958;28;20164;-64
2022/06/06 04:29:15;;;;;;;14.20;8.45;;;;;;;19.49;100.00;94394.69;5093240;28;20207;-64
2022/06/06 04:31:48;;;;;;;11.68;8.63;;;;;;;19.68;100.00;94398.34;5077678;28;20188;-64
2022/06/06 04:34:20;;;;;;;10.73;7.50;;;;;;;19.79;100.00;94406.34;5096001;28;20196;-61
2022/06/06 04:37:00;;;;;;;11.07;7.38;;;;;;;19.72;100.00;94405.53;5095933;28;20184;-64
2022/06/06 04:39:44;;;;;;;14.25;7.78;;;;;;;19.79;100.00;94405.56;5077602;28;20196;-61
2022/06/06 04:42:45;;;;;;;14.73;8.63;;;;;;;19.91;100.00;94401.44;5095985;28;20197;-61
2022/06/06 04:45:24;;;;;;;11.98;7.45;;;;;;;20.12;100.00;94409.03;5072147;28;20720;-63
2022/06/06 04:47:51;;;;;;;12.85;7.93;;;;;;;20.10;100.00;94411.81;5095870;28;20203;-63
2022/06/06 04:50:19;;;;;;;11.98;7.65;;;;;;;20.07;100.00;94403.69;5077284;28;20212;-64
2022/06/06 04:53:04;;;;;;;13.50;8.18;;;;;;;20.12;100.00;94416.78;5095849;28;20200;-65
2022/06/06 04:55:32;;;;;;;11.15;7.80;;;;;;;20.17;100.00;94418.78;5095669;28;20191;-63
2022/06/06 04:58:01;;;;;;;15.05;8.15;;;;;;;20.06;100.00;94418.38;5095849;28;20204;-64
2022/06/06 05:00:27;;;;;;;12.23;8.68;;;;;;;19.97;100.00;94424.69;5095800;28;20713;-63
2022/06/06 05:02:52;;;;;;;13.45;9.10;;;;;;;20.08;100.00;94429.28;5095629;28;20228;-67
2022/06/06 05:05:20;;;;;;;17.52;8.77;;;;;;;20.28;100.00;94426.81;5095362;28;20672;-61
2022/06/06 05:08:12;;;;;;;14.60;8.32;;;;;;;20.34;100.00;94420.84;5077121;28;20298;-63
2022/06/06 05:11:34;;;;;;;10.93;7.72;;;;;;;20.22;100.00;94421.63;5094966;28;20572;-59
2022/06/06 05:14:18;;;;;;;12.43;8.35;;;;;;;20.08;100.00;94431.88;5032730;28;20207;-62
2022/06/06 05:17:02;;;;;;;10.52;7.57;;;;;;;19.88;100.00;94431.00;5016173;28;20186;-61
2022/06/06 05:19:44;;;;;;;13.75;8.48;;;;;;;19.73;100.00;94438.09;5067148;28;20269;-64
2022/06/06 05:22:25;;;;;;;12.35;8.52;;;;;;;19.61;100.00;94431.88;5095093;28;20195;-63
2022/06/06 05:25:02;;;;;;;14.25;9.85;;;;;;;19.66;100.00;94439.81;5094892;28;21011;-64
2022/06/06 05:30:15;;;;;;;11.07;7.65;;;;;;;19.77;100.00;94444.44;5102460;22;20236;-64
2022/06/06 05:33:19;;;;;;;17.10;7.25;;;;;;;20.13;100.00;94445.97;5094832;28;20606;-66
2022/06/06 05:36:10;;;;;;;12.70;8.45;;;;;;;20.42;100.00;94450.91;5032299;28;20648;-61
2022/06/06 05:38:38;;;;;;;13.02;7.70;;;;;;;20.26;100.00;94441.69;5093043;28;20302;-64
2022/06/06 05:41:28;;;;;;;10.50;6.97;;;;;;;20.53;100.00;94445.16;5093983;28;20634;-63
2022/06/06 05:44:15;;;;;;;17.40;8.32;;;;;;;20.54;100.00;94442.34;5094645;28;20227;-64
2022/06/06 05:46:57;;;;;;;15.00;8.15;;;;;;;20.66;100.00;94451.16;5076294;28;20176;-61
2022/06/06 05:49:34;;;;;;;11.05;7.43;;;;;;;20.61;100.00;94456.09;5094839;28;20232;-64
2022/06/06 05:52:17;;;;;;;14.10;8.30;;;;;;;20.71;100.00;94432.47;5094315;28;20190;-63
2022/06/06 05:55:01;;;;;;;14.27;8.23;;;;;;;21.07;100.00;94447.66;5101781;22;20243;-64
2022/06/06 05:57:33;;;;;;;13.18;7.22;;;;;;;20.99;100.00;94448.59;5094301;28;20614;-61
2022/06/06 06:00:19;;;;;;;10.13;7.43;;;;;;;21.08;100.00;94452.63;5094059;28;20626;-62
2022/06/06 06:03:26;;;;;;;14.48;7.60;;;;;;;21.19;100.00;94454.59;5093979;28;20203;-63
2022/06/06 06:06:32;;;;;;;15.60;7.38;;;;;;;21.44;100.00;94457.38;5093785;28;20188;-62
2022/06/06 06:09:23;;;;;;;11.32;7.47;;;;;;;21.84;100.00;94468.47;5094311;28;20204;-60
2022/06/06 06:11:58;;;;;;;10.65;7.45;;;;;;;21.92;100.00;94452.75;5093978;28;20255;-61
2022/06/06 06:14:47;;;;;;;8.45;7.32;;;;;;;21.84;100.00;94445.97;5094145;28;20227;-64
2022/06/06 06:17:16;;;;;;;12.82;6.68;;;;;;;21.38;100.00;94463.34;5075451;28;20184;-64
2022/06/06 06:20:01;;;;;;;10.45;6.72;;;;;;;21.24;100.00;94444.47;5075375;28;20657;-64
2022/06/06 06:22:31;;;;;;;9.63;6.28;;;;;;;21.19;100.00;94449.41;5075532;28;20257;-64
2022/06/06 06:25:01;;;;;;;9.95;6.88;;;;;;;21.23;100.00;94442.84;5093662;28;20256;-62
2022/06/06 06:27:31;;;;;;;11.27;7.70;;;;;;;21.45;100.00;94452.00;5075348;28;20223;-65
2022/06/06 06:29:57;;;;;;;15.57;7.68;;;;;;;21.73;100.00;94478.41;5093615;28;20212;-61
2022/06/06 06:32:28;;;;;;;16.17;7.22;;;;;;;21.65;100.00;94450.16;5093342;28;20199;-61
2022/06/06 06:35:13;;;;;;;12.95;7.40;;;;;;;21.37;100.00;94439.25;5075144;28;20251;-62
2022/06/06 06:38:03;;;;;;;13.07;6.53;;;;;;;21.48;100.00;94441.25;5093174;28;20271;-61
2022/06/06 06:41:05;;;;;;;11.30;7.32;;;;;;;21.19;100.00;94440.88;5093276;28;20165;-62
2022/06/06 06:43:59;;;;;;;9.68;6.80;;;;;;;21.37;100.00;94443.66;5093544;28;20219;-61
2022/06/06 06:46:33;;;;;;;15.63;7.55;;;;;;;21.30;100.00;94428.16;5093326;28;20169;-64
2022/06/06 06:49:36;;;;;;;12.75;7.22;;;;;;;21.13;100.00;94423.59;5093180;28;20200;-61
2022/06/06 06:52:13;;;;;;;12.00;7.78;;;;;;;21.24;100.00;94431.53;5092444;28;20164;-64
2022/06/06 06:55:15;;;;;;;11.43;7.72;;;;;;;21.20;100.00;94411.44;5093546;28;20203;-62
2022/06/06 06:58:10;;;;;;;13.93;7.90;;;;;;;21.38;100.00;94401.25;5074820;28;20212;-62
2022/06/06 07:00:52;;;;;;;12.52;8.15;;;;;;;21.64;100.00;94409.78;5093097;28;20156;-63
2022/06/06 07:09:15;;;;;;;15.05;9.13;;;;;;;21.96;100.00;94418.47;5093662;28;20245;-61
2022/06/06 07:11:58;;;;;;;17.05;9.65;;;;;;;21.80;100.00;94400.75;5092903;28;20200;-64
2022/06/06 07:14:35;;;;;;;20.58;11.40;;;;;;;21.98;100.00;94394.97;5093213;28;20204;-62
2022/06/06 07:17:02;;;;;;;15.48;10.43;;;;;;;22.03;100.00;94379.59;5092667;28;20183;-62
2022/06/06 07:19:45;;;;;;;15.50;10.10;;;;;;;22.44;100.00;94393.72;5093015;28;20574;-63
2022/06/06 07:22:12;;;;;;;15.20;10.23;;;;;;;22.41;100.00;94380.41;5074247;28;20179;-64
2022/06/06 07:24:40;;;;;;;17.77;9.30;;;;;;;22.66;100.00;94370.09;5092442;28;20209;-66
2022/06/06 07:27:08;;;;;;;13.02;10.60;;;;;;;22.73;100.00;94374.22;5092418;28;20233;-61
2022/06/06 07:29:34;;;;;;;17.33;10.75;;;;;;;22.73;100.00;94373.41;5092231;28;20228;-63
2022/06/06 07:32:05;;;;;;;15.43;9.80;;;;;;;23.05;100.00;94382.75;5074482;28;20257;-64
2022/06/06 07:34:46;;;;;;;14.35;10.30;;;;;;;23.37;100.00;94412.03;5074222;28;20218;-61
2022/06/06 07:37:17;;;;;;;15.93;10.02;;;;;;;23.42;100.00;94394.00;5101057;22;20231;-64
2022/06/06 07:39:52;;;;;;;17.70;11.15;;;;;;;23.23;100.00;94386.19;5073898;28;20223;-65
2022/06/06 07:42:32;;;;;;;18.10;10.35;;;;;;;23.44;100.00;94402.38;5092631;28;20184;-64
2022/06/06 07:45:09;;;;;;;13.38;9.50;;;;;;;23.39;100.00;94416.03;5092178;28;20540;-64
2022/06/06 07:47:53;;;;;;;20.38;11.10;;;;;;;23.66;100.00;94404.34;5073850;28;20183;-62
2022/06/06 07:50:25;;;;;;;18.50;11.00;;;;;;;23.75;100.00;94438.63;5092007;28;20210;-62
2022/06/06 07:53:04;;;;;;;17.80;11.40;;;;;;;24.11;100.00;94443.84;5073984;28;20261;-62
2022/06/06 07:55:41;;;;;;;18.35;11.23;;;;;;;24.26;100.00;94427.88;5092094;28;20222;-63
2022/06/06 07:58:17;;;;;;;15.25;10.95;;;;;;;24.27;100.00;94404.28;5092057;28;20264;-63
2022/06/06 08:00:49;;;;;;;19.15;10.98;;;;;;;23.96;100.00;94407.81;5092188;28;20211;-61
2022/06/06 08:03:19;;;;;;;20.70;11.88;;;;;;;24.37;100.00;94433.13;5092477;28;20197;-61
2022/06/06 08:05:54;;;;;;;17.88;10.45;;;;;;;24.33;100.00;94433.78;5074227;28;20179;-60
2022/06/06 08:08:50;;;;;;;17.05;9.18;;;;;;;24.32;100.00;94440.78;5092461;28;20199;-63
2022/06/06 08:11:54;;;;;;;14.38;9.00;;;;;;;24.42;100.00;94441.06;5091588;28;20665;-63
2022/06/06 08:14:40;;;;;;;12.40;8.07;;;;;;;24.38;100.00;94439.91;5080614;28;20215;-61
2022/06/06 08:17:18;;;;;;;12.23;7.25;;;;;;;24.30;100.00;94471.41;5091744;28;20263;-64
2022/06/06 08:19:49;;;;;;;12.80;6.68;;;;;;;24.19;100.00;94453.94;5091471;28;20620;-63
2022/06/06 08:22:15;;;;;;;11.90;6.45;;;;;;;24.10;100.00;94465.63;5091908;28;20194;-60
2022/06/06 08:24:45;;;;;;;15.52;6.45;;;;;;;24.34;100.00;94458.78;5073266;28;20283;-60
2022/06/06 08:27:14;;;;;;;16.42;6.70;;;;;;;24.24;100.00;94466.28;5073613;28;20188;-63
2022/06/06 08:29:43;;;;;;;11.60;5.38;;;;;;;24.07;100.00;94538.81;5091424;28;20695;-61
2022/06/06 08:32:10;;;;;;;10.07;5.45;;;;;;;24.12;100.00;94485.19;5091237;28;20184;-62
2022/06/06 08:34:37;;;;;;;12.15;6.30;;;;;;;23.98;100.00;94488.09;5091193;28;20282;-62
2022/06/06 08:37:21;;;;;;;9.88;4.80;;;;;;;24.23;100.00;94517.47;5091447;28;20615;-61
2022/06/06 08:40:08;;;;;;;14.82;5.47;;;;;;;24.52;100.00;94506.34;5091362;28;20198;-62
2022/06/06 08:42:49;;;;;;;17.25;10.73;;;;;;;24.68;100.00;94435.53;5091670;28;20216;-60
2022/06/06 08:45:21;;;;;;;14.80;7.82;;;;;;;24.82;100.00;94535.78;5091460;28;20199;-60
2022/06/06 08:48:13;;;;;;;8.77;5.43;;;;;;;24.60;100.00;94472.25;5091577;28;20686;-60
2022/06/06 08:50:57;;;;;;;11.98;5.03;;;;;;;24.46;100.00;94509.78;5091173;28;20219;-61
2022/06/06 08:53:48;;;;;;;9.85;4.95;;;;;;;24.10;100.00;94508.00;5091703;28;20296;-61
2022/06/06 08:56:37;;;;;;;12.70;5.72;;;;;;;23.87;100.00;94458.47;5091415;28;20255;-61
2022/06/06 08:59:02;;;;;;;7.60;4.55;;;;;;;23.61;100.00;94458.75;5062429;28;20265;-61
2022/06/06 09:01:40;;;;;;;8.43;4.22;;;;;;;23.42;100.00;94519.38;5072967;28;20184;-61
2022/06/06 09:04:50;;;;;;;11.80;3.55;;;;;;;22.90;100.00;94453.09;5090987;28;20252;-61
2022/06/06 09:08:13;;;;;;;7.10;3.10;;;;;;;22.40;100.00;94421.03;5057771;28;20248;-61
2022/06/06 09:11:12;;;;;;;5.88;3.13;;;;;;;22.10;100.00;94434.75;5009157;28;20206;-61
2022/06/06 09:13:55;;;;;;;5.50;3.03;;;;;;;21.89;100.00;94429.84;4992634;28;20211;-63
2022/06/06 09:16:23;;;;;;;5.50;3.15;;;;;;;21.34;100.00;94441.47;5077674;28;20384;-62
2022/06/06 09:19:01;;;;;;;9.05;3.47;;;;;;;21.18;100.00;94468.53;5094733;28;20226;-62
2022/06/06 09:21:45;;;;;;;4.55;3.75;;;;;;;21.02;100.00;94474.09;5076548;28;20192;-64
2022/06/06 09:24:19;;;;;;;8.88;4.22;;;;;;;21.09;100.00;94482.63;5094792;28;20275;-63
2022/06/06 09:27:09;;;;;;;9.57;4.93;;;;;;;21.10;100.00;94480.84;5094920;28;20176;-63
2022/06/06 09:30:07;;;;;;;11.65;4.35;;;;;;;20.88;100.00;94486.19;5076292;28;20204;-64
2022/06/06 09:32:51;;;;;;;9.52;4.85;;;;;;;20.82;100.00;94489.56;5040365;28;20202;-64
2022/06/06 09:35:38;;;;;;;14.38;5.13;;;;;;;20.57;100.00;94480.72;5094521;28;20662;-62
2022/06/06 09:38:28;;;;;;;13.57;6.75;;;;;;;20.20;100.00;94485.56;5076382;28;20303;-63
2022/06/06 09:40:56;;;;;;;7.53;4.78;;;;;;;19.94;100.00;94492.16;5094348;28;20177;-62
2022/06/06 09:43:35;;;;;;;8.48;4.80;;;;;;;19.69;100.00;94490.25;5094804;28;20210;-63
2022/06/06 09:46:13;;;;;;;7.68;4.00;;;;;;;19.57;100.00;94489.97;5094330;28;20179;-63
2022/06/06 09:49:15;;;;;;;6.72;4.45;;;;;;;19.64;100.00;94475.31;5094564;28;20277;-62
2022/06/06 09:52:09;;;;;;;12.57;4.40;;;;;;;19.76;100.00;94476.38;5075993;28;20215;-62
2022/06/06 10:01:28;;;;;;;8.45;4.10;;;;;;;21.44;100.00;94504.72;5031537;28;20279;-62
2022/06/06 10:04:42;;;;;;;7.65;4.32;;;;;;;21.98;100.00;94519.25;5093921;28;20224;-61
2022/06/06 10:07:39;;;;;;;9.27;3.67;;;;;;;22.23;100.00;94582.31;5074858;28;20200;-62
2022/06/06 10:10:33;;;;;;;7.70;4.18;;;;;;;22.71;100.00;94638.03;5090420;28;20625;-62
2022/06/06 10:12:58;;;;;;;6.80;2.45;;;;;;;22.57;100.00;94613.13;5094372;28;20288;-62
2022/06/06 10:15:35;;;;;;;3.28;2.88;;;;;;;22.66;99.78;94647.44;5075555;28;20212;-63
2022/06/06 10:18:16;;;;;;;7.45;3.25;;;;;;;23.14;97.38;94646.88;5094151;28;20782;-63
2022/06/06 10:21:03;;;;;;;4.25;3.17;;;;;;;23.22;100.00;94581.78;5093526;28;20179;-63
2022/06/06 10:24:04;;;;;;;5.25;2.60;;;;;;;22.74;100.00;94544.31;5094218;28;20238;-63
2022/06/06 10:26:40;;;;;;;4.78;2.88;;;;;;;22.42;100.00;94509.72;5061844;28;20666;-61
2022/06/06 10:29:11;;;;;;;3.90;2.53;;;;;;;22.49;100.00;94543.38;5093511;28;20234;-62
2022/06/06 10:32:07;;;;;;;4.47;3.05;;;;;;;22.74;100.00;94483.91;5075309;28;20220;-63
2022/06/06 10:34:55;;;;;;;4.30;2.95;;;;;;;22.61;100.00;94500.31;5075102;28;20226;-61
2022/06/06 10:37:45;;;;;;;7.63;3.15;;;;;;;22.28;100.00;94510.00;5093405;28;20185;-63
2022/06/06 10:40:32;;;;;;;5.70;2.97;;;;;;;22.26;100.00;94517.19;5075105;28;20226;-64
2022/06/06 10:43:12;;;;;;;3.95;2.90;;;;;;;21.98;100.00;94493.34;5093924;28;20646;-62
2022/06/06 10:45:46;;;;;;;5.57;2.92;;;;;;;21.84;100.00;94484.81;5075033;28;20592;-63
2022/06/06 10:48:30;;;;;;;8.75;3.45;;;;;;;21.86;100.00;94466.47;5093842;28;20215;-63
2022/06/06 10:54:00;;;;;;;5.80;3.38;;;;;;;21.84;100.00;94528.00;5093006;28;20341;-62
2022/06/06 10:57:03;;;;;;;6.07;3.65;;;;;;;21.69;100.00;94455.75;5093290;28;20206;-65
2022/06/06 11:00:00;;;;;;;3.78;3.03;;;;;;;21.37;100.00;94477.28;5093112;28;20200;-62
2022/06/06 11:03:03;;;;;;;6.78;3.50;;;;;;;21.33;100.00;94478.69;5074632;28;20199;-63
2022/06/06 11:05:31;;;;;;;5.60;3.72;;;;;;;21.36;100.00;94530.81;5093141;28;20215;-64
2022/06/06 11:08:00;;;;;;;5.22;3.13;;;;;;;21.43;100.00;94510.88;5100450;22;20298;-64
2022/06/06 11:10:59;;;;;;;4.40;3.22;;;;;;;21.41;100.00;94499.16;5092868;28;20790;-62
2022/06/06 11:13:49;;;;;;;14.40;3.80;;;;;;;21.42;100.00;94464.53;5093209;28;20231;-61
2022/06/06 11:16:26;;;;;;;10.43;3.28;;;;;;;21.50;100.00;94480.66;5093167;28;20230;-65
2022/06/06 11:19:13;;;;;;;4.38;3.15;;;;;;;21.48;100.00;94485.22;5092841;28;20188;-64
2022/06/06 11:22:00;;;;;;;5.68;3.15;;;;;;;21.50;100.00;94491.00;5092846;28;20180;-62
2022/06/06 11:25:07;;;;;;;7.18;3.53;;;;;;;21.65;100.00;94509.69;5074445;28;20705;-63
2022/06/06 11:27:36;;;;;;;3.30;3.00;;;;;;;21.78;100.00;94506.28;5074582;28;20191;-63
2022/06/06 11:30:16;;;;;;;6.18;3.40;;;;;;;21.71;100.00;94475.22;5092566;28;20261;-62
2022/06/06 11:33:01;;;;;;;4.68;3.95;;;;;;;22.02;100.00;94479.00;5074236;28;20218;-63
2022/06/06 11:35:27;;;;;;;10.88;8.20;;;;;;;22.16;100.00;94481.31;5092414;28;20172;-62
2022/06/06 11:37:56;;;;;;;9.15;5.43;;;;;;;22.18;100.00;94445.66;5092335;28;20708;-63
2022/06/06 11:40:45;;;;;;;3.60;3.30;;;;;;;22.03;100.00;94441.75;5092258;28;20240;-64
2022/06/06 11:43:36;;;;;;;8.27;3.08;;;;;;;22.25;100.00;94448.22;5092693;28;20200;-62
2022/06/06 11:46:23;;;;;;;3.53;3.22;;;;;;;22.31;100.00;94471.53;5073960;28;20263;-62
2022/06/06 11:48:57;;;;;;;5.45;3.78;;;;;;;22.27;100.00;94472.94;5092283;28;20242;-65
2022/06/06 11:51:45;;;;;;;3.90;3.42;;;;;;;22.39;100.00;94473.06;5092144;28;20222;-61
2022/06/06 11:54:38;;;;;;;6.53;3.88;;;;;;;22.43;100.00;94472.47;5074117;28;20257;-64
2022/06/06 11:57:38;;;;;;;4.80;4.13;;;;;;;22.48;100.00;94475.22;5092397;28;20243;-63
2022/06/06 12:00:21;;;;;;;6.45;3.58;;;;;;;22.62;100.00;94548.56;5092098;28;20172;-62
2022/06/06 12:03:12;;;;;;;5.78;3.92;;;;;;;22.51;100.00;94507.69;5092411;28;20235;-63
2022/06/06 12:06:12;;;;;;;7.88;3.72;;;;;;;22.54;100.00;94508.06;5058261;28;20203;-62
2022/06/06 12:09:11;;;;;;;9.73;3.83;;;;;;;22.48;100.00;94490.00;5091748;28;20212;-64
2022/06/06 12:11:52;;;;;;;9.73;3.95;;;;;;;22.47;100.00;94540.22;5091778;28;20208;-59
2022/06/06 12:14:41;;;;;;;6.45;3.50;;;;;;;22.25;100.00;94480.13;5091756;28;20709;-59
2022/06/06 12:17:16;;;;;;;4.80;4.07;;;;;;;22.44;100.00;94460.31;5091601;28;20742;-62
2022/06/06 12:20:09;;;;;;;5.72;4.25;;;;;;;22.46;100.00;94440.16;5091668;28;20222;-63
2022/06/06 12:22:34;;;;;;;6.63;4.53;;;;;;;22.62;100.00;94465.63;5092013;28;20194;-62
2022/06/06 12:25:30;;;;;;;5.45;4.45;;;;;;;22.52;100.00;94453.06;5073657;28;20642;-61
2022/06/06 12:28:22;;;;;;;7.90;4.97;;;;;;;22.24;100.00;94482.91;5092110;28;20235;-62
2022/06/06 12:30:56;;;;;;;5.50;4.10;;;;;;;22.16;100.00;94501.28;5091800;28;20207;-60
2022/06/06 12:33:32;;;;;;;8.15;3.38;;;;;;;22.17;100.00;94469.97;5092250;28;20211;-61
2022/06/06 12:36:21;;;;;;;6.43;3.40;;;;;;;22.17;100.00;94462.22;5073562;28;20183;-63
2022/06/06 12:39:06;;;;;;;5.72;3.50;;;;;;;22.15;100.00;94471.19;5073324;28;20200;-64
2022/06/06 12:41:57;;;;;;;4.38;3.97;;;;;;;22.36;100.00;94450.97;5090881;28;20230;-62
2022/06/06 12:44:38;;;;;;;4.88;3.58;;;;;;;22.44;100.00;94473.28;5091524;28;20196;-59